sensor_id;sensor_type;location;lat;lon;timestamp;temperature;humidity
20125;DHT22;10223;50.862;4.360;2022-09-09T00:02:19;15.90;99.90
20125;DHT22;10223;50.862;4.360;2022-09-09T00:04:58;15.90;99.90
20125;DHT22;10223;50.862;4.360;2022-09-09T00:07:34;15.90;99.90
20125;DHT22;10223;50.862;4.360;2022-09-09T00:10:13;15.90;99.90
20125;DHT22;10223;50.862;4.360;2022-09-09T00:12:52;15.90;99.90
20125;DHT22;10223;50.862;4.360;2022-09-09T00:15:25;15.80;99.90
20125;DHT22;10223;50.862;4.360;2022-09-09T00:17:58;15.80;99.90
20125;DHT22;10223;50.862;4.360;2022-09-09T00:20:32;15.80;99.90
20125;DHT22;10223;50.862;4.360;2022-09-09T00:23:05;15.90;99.90
20125;DHT22;10223;50.862;4.360;2022-09-09T00:25:40;15.90;99.90
20125;DHT22;10223;50.862;4.360;2022-09-09T00:28:18;15.80;99.90
20125;DHT22;10223;50.862;4.360;2022-09-09T00:30:46;15.80;99.90
20125;DHT22;10223;50.862;4.360;2022-09-09T00:33:18;15.80;99.90
20125;DHT22;10223;50.862;4.360;2022-09-09T00:35:49;15.80;99.90
20125;DHT22;10223;50.862;4.360;2022-09-09T00:38:20;15.90;99.90
20125;DHT22;10223;50.862;4.360;2022-09-09T00:40:53;15.80;99.90
20125;DHT22;10223;50.862;4.360;2022-09-09T00:43:27;15.80;99.90
20125;DHT22;10223;50.862;4.360;2022-09-09T00:46:32;15.80;99.90
20125;DHT22;10223;50.862;4.360;2022-09-09T00:49:08;15.80;99.90
20125;DHT22;10223;50.862;4.360;2022-09-09T00:51:46;15.80;99.90
20125;DHT22;10223;50.862;4.360;2022-09-09T00:54:25;15.80;99.90
20125;DHT22;10223;50.862;4.360;2022-09-09T00:57:03;15.80;99.90
20125;DHT22;10223;50.862;4.360;2022-09-09T00:59:42;15.80;99.90
20125;DHT22;10223;50.862;4.360;2022-09-09T01:02:19;15.80;99.90
20125;DHT22;10223;50.862;4.360;2022-09-09T01:04:48;15.80;99.90
20125;DHT22;10223;50.862;4.360;2022-09-09T01:07:17;15.90;99.90
20125;DHT22;10223;50.862;4.360;2022-09-09T01:09:54;15.90;99.90
20125;DHT22;10223;50.862;4.360;2022-09-09T01:12:30;16.00;99.90
20125;DHT22;10223;50.862;4.360;2022-09-09T01:15:09;16.00;99.90
20125;DHT22;10223;50.862;4.360;2022-09-09T01:17:48;16.00;99.90
20125;DHT22;10223;50.862;4.360;2022-09-09T01:20:19;16.10;99.90
20125;DHT22;10223;50.862;4.360;2022-09-09T01:22:57;16.20;99.90
20125;DHT22;10223;50.862;4.360;2022-09-09T01:28:22;16.10;99.90
20125;DHT22;10223;50.862;4.360;2022-09-09T01:30:51;16.20;99.90
20125;DHT22;10223;50.862;4.360;2022-09-09T01:33:19;16.20;99.90
20125;DHT22;10223;50.862;4.360;2022-09-09T01:35:49;16.20;99.90
20125;DHT22;10223;50.862;4.360;2022-09-09T01:38:17;16.20;99.90
20125;DHT22;10223;50.862;4.360;2022-09-09T01:40:45;16.10;99.90
20125;DHT22;10223;50.862;4.360;2022-09-09T01:43:12;16.00;99.90
20125;DHT22;10223;50.862;4.360;2022-09-09T01:45:42;16.00;99.90
20125;DHT22;10223;50.862;4.360;2022-09-09T01:48:09;16.00;99.90
20125;DHT22;10223;50.862;4.360;2022-09-09T01:50:36;16.00;99.90
20125;DHT22;10223;50.862;4.360;2022-09-09T01:53:03;15.90;99.90
20125;DHT22;10223;50.862;4.360;2022-09-09T01:55:32;16.00;99.90
20125;DHT22;10223;50.862;4.360;2022-09-09T01:58:16;16.10;99.90
20125;DHT22;10223;50.862;4.360;2022-09-09T02:00:51;16.00;99.90
20125;DHT22;10223;50.862;4.360;2022-09-09T02:03:25;16.00;99.90
20125;DHT22;10223;50.862;4.360;2022-09-09T02:06:00;16.00;99.90
20125;DHT22;10223;50.862;4.360;2022-09-09T02:08:38;16.00;99.90
20125;DHT22;10223;50.862;4.360;2022-09-09T02:11:08;15.90;99.90
20125;DHT22;10223;50.862;4.360;2022-09-09T02:13:38;16.00;99.90
20125;DHT22;10223;50.862;4.360;2022-09-09T02:16:10;16.00;99.90
20125;DHT22;10223;50.862;4.360;2022-09-09T02:18:42;16.00;99.90
20125;DHT22;10223;50.862;4.360;2022-09-09T02:21:12;16.10;99.90
20125;DHT22;10223;50.862;4.360;2022-09-09T02:23:41;16.10;99.90
20125;DHT22;10223;50.862;4.360;2022-09-09T02:26:10;16.10;99.90
20125;DHT22;10223;50.862;4.360;2022-09-09T02:28:42;16.10;99.90
20125;DHT22;10223;50.862;4.360;2022-09-09T02:31:10;16.00;99.90
20125;DHT22;10223;50.862;4.360;2022-09-09T02:33:41;16.00;99.90
20125;DHT22;10223;50.862;4.360;2022-09-09T02:36:11;16.00;99.90
20125;DHT22;10223;50.862;4.360;2022-09-09T02:38:41;15.90;99.90
20125;DHT22;10223;50.862;4.360;2022-09-09T02:41:09;15.90;99.90
20125;DHT22;10223;50.862;4.360;2022-09-09T02:43:36;16.00;99.90
20125;DHT22;10223;50.862;4.360;2022-09-09T02:46:11;15.90;99.90
20125;DHT22;10223;50.862;4.360;2022-09-09T02:48:51;15.90;99.90
20125;DHT22;10223;50.862;4.360;2022-09-09T02:51:24;15.90;99.90
20125;DHT22;10223;50.862;4.360;2022-09-09T02:53:57;16.00;99.90
20125;DHT22;10223;50.862;4.360;2022-09-09T02:56:29;15.90;99.90
20125;DHT22;10223;50.862;4.360;2022-09-09T02:58:59;15.90;99.90
20125;DHT22;10223;50.862;4.360;2022-09-09T03:01:27;15.90;99.90
20125;DHT22;10223;50.862;4.360;2022-09-09T03:03:54;15.90;99.90
20125;DHT22;10223;50.862;4.360;2022-09-09T03:06:21;15.90;99.90
20125;DHT22;10223;50.862;4.360;2022-09-09T03:08:48;15.80;99.90
20125;DHT22;10223;50.862;4.360;2022-09-09T03:11:15;15.90;99.90
20125;DHT22;10223;50.862;4.360;2022-09-09T03:13:42;15.80;99.90
20125;DHT22;10223;50.862;4.360;2022-09-09T03:16:09;15.80;99.90
20125;DHT22;10223;50.862;4.360;2022-09-09T03:18:37;15.80;99.90
20125;DHT22;10223;50.862;4.360;2022-09-09T03:21:04;15.70;99.90
20125;DHT22;10223;50.862;4.360;2022-09-09T03:23:32;15.80;99.90
20125;DHT22;10223;50.862;4.360;2022-09-09T03:25:59;15.80;99.90
20125;DHT22;10223;50.862;4.360;2022-09-09T03:28:26;15.90;99.90
20125;DHT22;10223;50.862;4.360;2022-09-09T03:30:59;15.80;99.90
20125;DHT22;10223;50.862;4.360;2022-09-09T03:33:26;15.90;99.90
20125;DHT22;10223;50.862;4.360;2022-09-09T03:35:55;15.90;99.90
20125;DHT22;10223;50.862;4.360;2022-09-09T03:38:22;15.80;99.90
20125;DHT22;10223;50.862;4.360;2022-09-09T03:40:50;15.90;99.90
20125;DHT22;10223;50.862;4.360;2022-09-09T03:43:19;15.80;99.90
20125;DHT22;10223;50.862;4.360;2022-09-09T03:45:47;15.80;99.90
20125;DHT22;10223;50.862;4.360;2022-09-09T03:48:14;15.80;99.90
20125;DHT22;10223;50.862;4.360;2022-09-09T03:50:44;15.80;99.90
20125;DHT22;10223;50.862;4.360;2022-09-09T03:53:14;15.70;99.90
20125;DHT22;10223;50.862;4.360;2022-09-09T03:55:44;15.70;99.90
20125;DHT22;10223;50.862;4.360;2022-09-09T03:58:12;15.60;99.90
20125;DHT22;10223;50.862;4.360;2022-09-09T04:00:39;15.70;99.90
20125;DHT22;10223;50.862;4.360;2022-09-09T04:03:08;15.60;99.90
20125;DHT22;10223;50.862;4.360;2022-09-09T04:05:35;15.70;99.90
20125;DHT22;10223;50.862;4.360;2022-09-09T04:08:05;15.60;99.90
20125;DHT22;10223;50.862;4.360;2022-09-09T04:10:34;15.60;99.90
20125;DHT22;10223;50.862;4.360;2022-09-09T04:13:02;15.70;99.90
20125;DHT22;10223;50.862;4.360;2022-09-09T04:15:30;15.70;99.90
20125;DHT22;10223;50.862;4.360;2022-09-09T04:17:57;15.60;99.90
20125;DHT22;10223;50.862;4.360;2022-09-09T04:20:24;15.70;99.90
20125;DHT22;10223;50.862;4.360;2022-09-09T04:22:51;15.70;99.90
20125;DHT22;10223;50.862;4.360;2022-09-09T04:25:18;15.70;99.90
20125;DHT22;10223;50.862;4.360;2022-09-09T04:27:46;15.70;99.90
20125;DHT22;10223;50.862;4.360;2022-09-09T04:30:13;15.70;99.90
20125;DHT22;10223;50.862;4.360;2022-09-09T04:32:40;15.70;99.90
20125;DHT22;10223;50.862;4.360;2022-09-09T04:35:07;15.70;99.90
20125;DHT22;10223;50.862;4.360;2022-09-09T04:37:34;15.60;99.90
20125;DHT22;10223;50.862;4.360;2022-09-09T04:40:01;15.60;99.90
20125;DHT22;10223;50.862;4.360;2022-09-09T04:42:28;15.60;99.90
20125;DHT22;10223;50.862;4.360;2022-09-09T04:44:57;15.60;99.90
20125;DHT22;10223;50.862;4.360;2022-09-09T04:47:24;15.60;99.90
20125;DHT22;10223;50.862;4.360;2022-09-09T04:49:51;15.70;99.90
20125;DHT22;10223;50.862;4.360;2022-09-09T04:52:19;15.70;99.90
20125;DHT22;10223;50.862;4.360;2022-09-09T04:54:46;15.60;99.90
20125;DHT22;10223;50.862;4.360;2022-09-09T04:57:13;15.60;99.90
20125;DHT22;10223;50.862;4.360;2022-09-09T04:59:40;15.60;99.90
20125;DHT22;10223;50.862;4.360;2022-09-09T05:02:09;15.60;99.90
20125;DHT22;10223;50.862;4.360;2022-09-09T05:04:36;15.60;99.90
20125;DHT22;10223;50.862;4.360;2022-09-09T05:07:03;15.50;99.90
20125;DHT22;10223;50.862;4.360;2022-09-09T05:09:30;15.50;99.90
20125;DHT22;10223;50.862;4.360;2022-09-09T05:11:56;15.60;99.90
20125;DHT22;10223;50.862;4.360;2022-09-09T05:14:23;15.60;99.90
20125;DHT22;10223;50.862;4.360;2022-09-09T05:16:50;15.70;99.90
20125;DHT22;10223;50.862;4.360;2022-09-09T05:19:19;15.70;99.90
20125;DHT22;10223;50.862;4.360;2022-09-09T05:21:45;15.70;99.90
20125;DHT22;10223;50.862;4.360;2022-09-09T05:24:12;15.70;99.90
20125;DHT22;10223;50.862;4.360;2022-09-09T05:26:40;15.70;99.90
20125;DHT22;10223;50.862;4.360;2022-09-09T05:29:07;15.70;99.90
20125;DHT22;10223;50.862;4.360;2022-09-09T05:31:33;15.80;99.90
20125;DHT22;10223;50.862;4.360;2022-09-09T05:34:00;15.80;99.90
20125;DHT22;10223;50.862;4.360;2022-09-09T05:36:29;15.80;99.90
20125;DHT22;10223;50.862;4.360;2022-09-09T05:38:56;15.80;99.90
20125;DHT22;10223;50.862;4.360;2022-09-09T05:41:23;15.80;99.90
20125;DHT22;10223;50.862;4.360;2022-09-09T05:43:50;15.80;99.90
20125;DHT22;10223;50.862;4.360;2022-09-09T05:46:18;15.80;99.90
20125;DHT22;10223;50.862;4.360;2022-09-09T05:48:46;15.70;99.90
20125;DHT22;10223;50.862;4.360;2022-09-09T05:51:15;15.70;99.90
20125;DHT22;10223;50.862;4.360;2022-09-09T05:53:45;15.80;99.90
20125;DHT22;10223;50.862;4.360;2022-09-09T05:56:13;15.70;99.90
20125;DHT22;10223;50.862;4.360;2022-09-09T05:58:41;15.60;99.90
20125;DHT22;10223;50.862;4.360;2022-09-09T06:01:11;15.70;99.90
20125;DHT22;10223;50.862;4.360;2022-09-09T06:03:40;15.70;99.90
20125;DHT22;10223;50.862;4.360;2022-09-09T06:06:09;15.70;99.90
20125;DHT22;10223;50.862;4.360;2022-09-09T06:08:37;15.70;99.90
20125;DHT22;10223;50.862;4.360;2022-09-09T06:11:09;15.70;99.90
20125;DHT22;10223;50.862;4.360;2022-09-09T06:13:36;15.80;99.90
20125;DHT22;10223;50.862;4.360;2022-09-09T06:16:04;15.80;99.90
20125;DHT22;10223;50.862;4.360;2022-09-09T06:18:33;15.70;99.90
20125;DHT22;10223;50.862;4.360;2022-09-09T06:21:01;15.80;99.90
20125;DHT22;10223;50.862;4.360;2022-09-09T06:23:30;15.90;99.90
20125;DHT22;10223;50.862;4.360;2022-09-09T06:26:04;15.90;99.90
20125;DHT22;10223;50.862;4.360;2022-09-09T06:28:34;16.00;99.90
20125;DHT22;10223;50.862;4.360;2022-09-09T06:31:03;16.00;99.90
20125;DHT22;10223;50.862;4.360;2022-09-09T06:33:31;16.00;99.90
20125;DHT22;10223;50.862;4.360;2022-09-09T06:36:02;16.00;99.90
20125;DHT22;10223;50.862;4.360;2022-09-09T06:38:30;16.00;99.90
20125;DHT22;10223;50.862;4.360;2022-09-09T06:40:58;16.10;99.90
20125;DHT22;10223;50.862;4.360;2022-09-09T06:43:26;16.10;99.90
20125;DHT22;10223;50.862;4.360;2022-09-09T06:45:55;16.00;99.90
20125;DHT22;10223;50.862;4.360;2022-09-09T06:48:22;16.10;99.90
20125;DHT22;10223;50.862;4.360;2022-09-09T06:50:51;16.10;99.90
20125;DHT22;10223;50.862;4.360;2022-09-09T06:53:19;16.10;99.90
20125;DHT22;10223;50.862;4.360;2022-09-09T06:55:46;16.20;99.90
20125;DHT22;10223;50.862;4.360;2022-09-09T06:58:13;16.10;99.90
20125;DHT22;10223;50.862;4.360;2022-09-09T07:00:40;16.00;99.90
20125;DHT22;10223;50.862;4.360;2022-09-09T07:03:09;16.20;99.90
20125;DHT22;10223;50.862;4.360;2022-09-09T07:05:36;16.20;99.90
20125;DHT22;10223;50.862;4.360;2022-09-09T07:08:04;16.20;99.90
20125;DHT22;10223;50.862;4.360;2022-09-09T07:10:31;16.10;99.90
20125;DHT22;10223;50.862;4.360;2022-09-09T07:12:59;16.20;99.90
20125;DHT22;10223;50.862;4.360;2022-09-09T07:15:27;16.30;99.90
20125;DHT22;10223;50.862;4.360;2022-09-09T07:17:54;16.30;99.90
20125;DHT22;10223;50.862;4.360;2022-09-09T07:20:22;16.30;99.90
20125;DHT22;10223;50.862;4.360;2022-09-09T07:22:49;16.40;99.90
20125;DHT22;10223;50.862;4.360;2022-09-09T07:25:16;16.30;99.90
20125;DHT22;10223;50.862;4.360;2022-09-09T07:27:43;16.30;99.90
20125;DHT22;10223;50.862;4.360;2022-09-09T07:30:11;16.30;99.90
20125;DHT22;10223;50.862;4.360;2022-09-09T07:32:38;16.30;99.90
20125;DHT22;10223;50.862;4.360;2022-09-09T07:35:06;16.20;99.90
20125;DHT22;10223;50.862;4.360;2022-09-09T07:37:36;16.20;99.90
20125;DHT22;10223;50.862;4.360;2022-09-09T07:40:03;16.20;99.90
20125;DHT22;10223;50.862;4.360;2022-09-09T07:42:31;16.20;99.90
20125;DHT22;10223;50.862;4.360;2022-09-09T07:44:58;16.00;99.90
20125;DHT22;10223;50.862;4.360;2022-09-09T07:47:25;15.90;99.90
20125;DHT22;10223;50.862;4.360;2022-09-09T07:49:51;16.00;99.90
20125;DHT22;10223;50.862;4.360;2022-09-09T07:52:18;15.90;99.90
20125;DHT22;10223;50.862;4.360;2022-09-09T07:54:48;15.90;99.90
20125;DHT22;10223;50.862;4.360;2022-09-09T07:57:15;15.90;99.90
20125;DHT22;10223;50.862;4.360;2022-09-09T07:59:42;16.00;99.90
20125;DHT22;10223;50.862;4.360;2022-09-09T08:02:09;16.00;99.90
20125;DHT22;10223;50.862;4.360;2022-09-09T08:04:36;16.10;99.90
20125;DHT22;10223;50.862;4.360;2022-09-09T08:07:03;16.10;99.90
20125;DHT22;10223;50.862;4.360;2022-09-09T08:09:31;16.20;99.90
20125;DHT22;10223;50.862;4.360;2022-09-09T08:12:00;16.10;99.90
20125;DHT22;10223;50.862;4.360;2022-09-09T08:14:28;16.40;99.90
20125;DHT22;10223;50.862;4.360;2022-09-09T08:16:56;16.40;99.90
20125;DHT22;10223;50.862;4.360;2022-09-09T08:19:23;16.50;99.90
20125;DHT22;10223;50.862;4.360;2022-09-09T08:21:54;16.50;99.90
20125;DHT22;10223;50.862;4.360;2022-09-09T08:24:21;16.50;99.90
20125;DHT22;10223;50.862;4.360;2022-09-09T08:26:48;16.40;99.90
20125;DHT22;10223;50.862;4.360;2022-09-09T08:29:17;16.40;99.90
20125;DHT22;10223;50.862;4.360;2022-09-09T08:31:46;16.50;99.90
20125;DHT22;10223;50.862;4.360;2022-09-09T08:34:13;16.60;99.90
20125;DHT22;10223;50.862;4.360;2022-09-09T08:36:42;16.60;99.90
20125;DHT22;10223;50.862;4.360;2022-09-09T08:39:10;16.50;99.90
20125;DHT22;10223;50.862;4.360;2022-09-09T08:41:53;16.50;99.90
20125;DHT22;10223;50.862;4.360;2022-09-09T08:44:37;16.40;99.90
20125;DHT22;10223;50.862;4.360;2022-09-09T08:47:15;16.40;99.90
20125;DHT22;10223;50.862;4.360;2022-09-09T08:49:59;16.30;99.90
20125;DHT22;10223;50.862;4.360;2022-09-09T08:52:31;16.30;99.90
20125;DHT22;10223;50.862;4.360;2022-09-09T08:55:05;16.30;99.90
20125;DHT22;10223;50.862;4.360;2022-09-09T08:57:39;16.30;99.90
20125;DHT22;10223;50.862;4.360;2022-09-09T09:00:10;16.20;99.90
20125;DHT22;10223;50.862;4.360;2022-09-09T09:02:42;16.10;99.90
20125;DHT22;10223;50.862;4.360;2022-09-09T09:05:20;16.20;99.90
20125;DHT22;10223;50.862;4.360;2022-09-09T09:07:59;16.20;99.90
20125;DHT22;10223;50.862;4.360;2022-09-09T09:10:46;16.20;99.90
20125;DHT22;10223;50.862;4.360;2022-09-09T09:13:17;16.20;99.90
20125;DHT22;10223;50.862;4.360;2022-09-09T09:15:52;16.20;99.90
20125;DHT22;10223;50.862;4.360;2022-09-09T09:18:20;16.20;99.90
20125;DHT22;10223;50.862;4.360;2022-09-09T09:20:53;16.20;99.90
20125;DHT22;10223;50.862;4.360;2022-09-09T09:23:24;16.20;99.90
20125;DHT22;10223;50.862;4.360;2022-09-09T09:25:55;16.20;99.90
20125;DHT22;10223;50.862;4.360;2022-09-09T09:28:26;16.20;99.90
20125;DHT22;10223;50.862;4.360;2022-09-09T09:30:57;16.20;99.90
20125;DHT22;10223;50.862;4.360;2022-09-09T09:33:30;16.10;99.90
20125;DHT22;10223;50.862;4.360;2022-09-09T09:35:59;16.10;99.90
20125;DHT22;10223;50.862;4.360;2022-09-09T09:38:28;16.10;99.90
20125;DHT22;10223;50.862;4.360;2022-09-09T09:40:56;16.20;99.90
20125;DHT22;10223;50.862;4.360;2022-09-09T09:43:26;16.10;99.90
20125;DHT22;10223;50.862;4.360;2022-09-09T09:45:56;16.10;99.90
20125;DHT22;10223;50.862;4.360;2022-09-09T09:48:24;16.00;99.90
20125;DHT22;10223;50.862;4.360;2022-09-09T09:50:54;16.10;99.90
20125;DHT22;10223;50.862;4.360;2022-09-09T09:53:24;16.10;99.90
20125;DHT22;10223;50.862;4.360;2022-09-09T09:55:56;16.10;99.90
20125;DHT22;10223;50.862;4.360;2022-09-09T09:58:26;16.20;99.90
20125;DHT22;10223;50.862;4.360;2022-09-09T10:00:55;16.30;99.90
20125;DHT22;10223;50.862;4.360;2022-09-09T10:03:25;16.30;99.90
20125;DHT22;10223;50.862;4.360;2022-09-09T10:05:53;16.50;99.90
20125;DHT22;10223;50.862;4.360;2022-09-09T10:08:20;16.40;99.90
20125;DHT22;10223;50.862;4.360;2022-09-09T10:10:57;16.40;99.90
20125;DHT22;10223;50.862;4.360;2022-09-09T10:13:30;16.40;99.90
20125;DHT22;10223;50.862;4.360;2022-09-09T10:16:13;16.50;99.90
20125;DHT22;10223;50.862;4.360;2022-09-09T10:18:56;16.50;99.90
20125;DHT22;10223;50.862;4.360;2022-09-09T10:21:37;16.50;99.90
20125;DHT22;10223;50.862;4.360;2022-09-09T10:24:34;16.50;99.90
20125;DHT22;10223;50.862;4.360;2022-09-09T10:27:08;16.50;99.90
20125;DHT22;10223;50.862;4.360;2022-09-09T10:29:52;16.60;99.90
20125;DHT22;10223;50.862;4.360;2022-09-09T10:32:37;16.60;99.90
20125;DHT22;10223;50.862;4.360;2022-09-09T10:35:10;16.70;99.90
20125;DHT22;10223;50.862;4.360;2022-09-09T10:37:48;16.90;99.90
20125;DHT22;10223;50.862;4.360;2022-09-09T10:40:28;17.00;99.90
20125;DHT22;10223;50.862;4.360;2022-09-09T10:43:03;17.30;99.90
20125;DHT22;10223;50.862;4.360;2022-09-09T10:45:37;17.40;99.90
20125;DHT22;10223;50.862;4.360;2022-09-09T10:48:24;17.60;99.90
20125;DHT22;10223;50.862;4.360;2022-09-09T10:51:06;17.70;99.90
20125;DHT22;10223;50.862;4.360;2022-09-09T10:53:46;17.70;99.90
20125;DHT22;10223;50.862;4.360;2022-09-09T10:56:16;17.60;99.90
20125;DHT22;10223;50.862;4.360;2022-09-09T10:58:49;17.70;99.90
20125;DHT22;10223;50.862;4.360;2022-09-09T11:01:20;17.70;99.90
20125;DHT22;10223;50.862;4.360;2022-09-09T11:03:54;17.70;99.90
20125;DHT22;10223;50.862;4.360;2022-09-09T11:06:28;17.80;99.90
20125;DHT22;10223;50.862;4.360;2022-09-09T11:08:57;17.60;99.90
20125;DHT22;10223;50.862;4.360;2022-09-09T11:11:29;17.70;99.90
20125;DHT22;10223;50.862;4.360;2022-09-09T11:14:03;17.70;99.90
20125;DHT22;10223;50.862;4.360;2022-09-09T11:16:38;17.70;99.90
20125;DHT22;10223;50.862;4.360;2022-09-09T11:19:15;17.60;99.90
20125;DHT22;10223;50.862;4.360;2022-09-09T11:21:46;17.50;99.90
20125;DHT22;10223;50.862;4.360;2022-09-09T11:24:20;17.50;99.90
20125;DHT22;10223;50.862;4.360;2022-09-09T11:26:52;17.70;99.90
20125;DHT22;10223;50.862;4.360;2022-09-09T11:29:49;17.80;99.90
20125;DHT22;10223;50.862;4.360;2022-09-09T11:35:30;17.70;99.90
20125;DHT22;10223;50.862;4.360;2022-09-09T11:38:16;17.70;99.90
20125;DHT22;10223;50.862;4.360;2022-09-09T11:40:45;17.60;99.90
20125;DHT22;10223;50.862;4.360;2022-09-09T11:43:14;17.50;99.90
20125;DHT22;10223;50.862;4.360;2022-09-09T11:45:50;17.50;99.90
20125;DHT22;10223;50.862;4.360;2022-09-09T11:48:28;17.50;99.90
20125;DHT22;10223;50.862;4.360;2022-09-09T11:51:03;17.60;99.90
20125;DHT22;10223;50.862;4.360;2022-09-09T11:53:33;17.70;99.90
20125;DHT22;10223;50.862;4.360;2022-09-09T11:56:09;17.60;99.90
20125;DHT22;10223;50.862;4.360;2022-09-09T11:58:39;17.60;99.90
20125;DHT22;10223;50.862;4.360;2022-09-09T12:01:36;17.60;99.90
20125;DHT22;10223;50.862;4.360;2022-09-09T12:04:30;17.60;99.90
20125;DHT22;10223;50.862;4.360;2022-09-09T12:07:02;17.60;99.90
20125;DHT22;10223;50.862;4.360;2022-09-09T12:09:45;17.60;99.90
20125;DHT22;10223;50.862;4.360;2022-09-09T12:12:29;17.60;99.90
20125;DHT22;10223;50.862;4.360;2022-09-09T12:14:59;17.60;99.90
20125;DHT22;10223;50.862;4.360;2022-09-09T12:17:27;17.60;99.90
20125;DHT22;10223;50.862;4.360;2022-09-09T12:20:08;17.70;99.90
20125;DHT22;10223;50.862;4.360;2022-09-09T12:22:44;17.60;99.90
20125;DHT22;10223;50.862;4.360;2022-09-09T12:25:19;17.60;99.90
20125;DHT22;10223;50.862;4.360;2022-09-09T12:27:59;17.70;99.90
20125;DHT22;10223;50.862;4.360;2022-09-09T12:30:31;17.70;99.90
20125;DHT22;10223;50.862;4.360;2022-09-09T12:33:02;17.80;99.90
20125;DHT22;10223;50.862;4.360;2022-09-09T12:35:30;18.00;99.90
20125;DHT22;10223;50.862;4.360;2022-09-09T12:38:02;18.10;99.90
20125;DHT22;10223;50.862;4.360;2022-09-09T12:40:31;18.20;99.90
20125;DHT22;10223;50.862;4.360;2022-09-09T12:43:01;18.20;99.90
20125;DHT22;10223;50.862;4.360;2022-09-09T12:45:31;18.20;99.90
20125;DHT22;10223;50.862;4.360;2022-09-09T12:48:00;18.30;99.90
20125;DHT22;10223;50.862;4.360;2022-09-09T12:50:30;18.40;99.90
20125;DHT22;10223;50.862;4.360;2022-09-09T12:53:03;18.50;99.90
20125;DHT22;10223;50.862;4.360;2022-09-09T12:55:36;18.50;99.90
20125;DHT22;10223;50.862;4.360;2022-09-09T12:58:06;18.40;99.90
20125;DHT22;10223;50.862;4.360;2022-09-09T13:00:34;18.60;99.90
20125;DHT22;10223;50.862;4.360;2022-09-09T13:03:13;18.70;99.90
20125;DHT22;10223;50.862;4.360;2022-09-09T13:05:40;18.70;99.90
20125;DHT22;10223;50.862;4.360;2022-09-09T13:08:12;18.70;99.90
20125;DHT22;10223;50.862;4.360;2022-09-09T13:10:43;18.70;99.90
20125;DHT22;10223;50.862;4.360;2022-09-09T13:13:14;18.60;99.90
20125;DHT22;10223;50.862;4.360;2022-09-09T13:15:49;18.50;99.90
20125;DHT22;10223;50.862;4.360;2022-09-09T13:18:18;18.60;99.90
20125;DHT22;10223;50.862;4.360;2022-09-09T13:20:51;18.70;99.90
20125;DHT22;10223;50.862;4.360;2022-09-09T13:23:20;18.90;99.90
20125;DHT22;10223;50.862;4.360;2022-09-09T13:25:55;18.90;99.90
20125;DHT22;10223;50.862;4.360;2022-09-09T13:28:24;18.80;99.90
20125;DHT22;10223;50.862;4.360;2022-09-09T13:30:56;19.00;99.90
20125;DHT22;10223;50.862;4.360;2022-09-09T13:33:31;18.90;99.90
20125;DHT22;10223;50.862;4.360;2022-09-09T13:36:00;19.00;99.90
20125;DHT22;10223;50.862;4.360;2022-09-09T13:38:32;19.00;99.90
20125;DHT22;10223;50.862;4.360;2022-09-09T13:41:01;19.20;99.90
20125;DHT22;10223;50.862;4.360;2022-09-09T13:43:31;19.00;99.90
20125;DHT22;10223;50.862;4.360;2022-09-09T13:45:59;19.10;99.90
20125;DHT22;10223;50.862;4.360;2022-09-09T13:48:27;19.20;99.90
20125;DHT22;10223;50.862;4.360;2022-09-09T13:51:01;19.30;99.90
20125;DHT22;10223;50.862;4.360;2022-09-09T13:53:30;19.50;99.90
20125;DHT22;10223;50.862;4.360;2022-09-09T13:55:57;19.70;99.90
20125;DHT22;10223;50.862;4.360;2022-09-09T13:58:25;19.70;99.90
20125;DHT22;10223;50.862;4.360;2022-09-09T14:00:52;19.50;99.90
20125;DHT22;10223;50.862;4.360;2022-09-09T14:03:19;19.50;99.90
20125;DHT22;10223;50.862;4.360;2022-09-09T14:05:47;19.50;99.90
20125;DHT22;10223;50.862;4.360;2022-09-09T14:08:20;19.50;99.90
20125;DHT22;10223;50.862;4.360;2022-09-09T14:10:49;19.40;99.90
20125;DHT22;10223;50.862;4.360;2022-09-09T14:13:17;19.30;99.90
20125;DHT22;10223;50.862;4.360;2022-09-09T14:15:44;19.50;99.90
20125;DHT22;10223;50.862;4.360;2022-09-09T14:18:12;19.70;99.90
20125;DHT22;10223;50.862;4.360;2022-09-09T14:20:39;19.70;99.90
20125;DHT22;10223;50.862;4.360;2022-09-09T14:23:10;19.70;99.90
20125;DHT22;10223;50.862;4.360;2022-09-09T14:25:42;19.60;99.90
20125;DHT22;10223;50.862;4.360;2022-09-09T14:28:11;19.60;99.90
20125;DHT22;10223;50.862;4.360;2022-09-09T14:30:40;19.70;99.90
20125;DHT22;10223;50.862;4.360;2022-09-09T14:33:08;19.40;99.90
20125;DHT22;10223;50.862;4.360;2022-09-09T14:35:36;19.30;99.90
20125;DHT22;10223;50.862;4.360;2022-09-09T14:38:04;19.20;99.90
20125;DHT22;10223;50.862;4.360;2022-09-09T14:40:31;19.40;99.90
20125;DHT22;10223;50.862;4.360;2022-09-09T14:42:59;19.60;99.90
20125;DHT22;10223;50.862;4.360;2022-09-09T14:45:27;19.80;99.90
20125;DHT22;10223;50.862;4.360;2022-09-09T14:47:54;19.80;99.90
20125;DHT22;10223;50.862;4.360;2022-09-09T14:50:22;19.80;99.90
20125;DHT22;10223;50.862;4.360;2022-09-09T14:52:50;19.90;99.90
20125;DHT22;10223;50.862;4.360;2022-09-09T14:55:17;20.00;99.90
20125;DHT22;10223;50.862;4.360;2022-09-09T14:57:44;20.30;99.90
20125;DHT22;10223;50.862;4.360;2022-09-09T15:00:12;20.40;99.90
20125;DHT22;10223;50.862;4.360;2022-09-09T15:02:40;20.50;99.90
20125;DHT22;10223;50.862;4.360;2022-09-09T15:05:08;20.60;99.90
20125;DHT22;10223;50.862;4.360;2022-09-09T15:07:36;20.40;99.90
20125;DHT22;10223;50.862;4.360;2022-09-09T15:10:04;20.40;99.90
20125;DHT22;10223;50.862;4.360;2022-09-09T15:12:32;20.10;99.90
20125;DHT22;10223;50.862;4.360;2022-09-09T15:15:01;20.10;99.90
20125;DHT22;10223;50.862;4.360;2022-09-09T15:17:28;20.10;99.90
20125;DHT22;10223;50.862;4.360;2022-09-09T15:19:56;20.00;99.90
20125;DHT22;10223;50.862;4.360;2022-09-09T15:22:23;20.00;99.90
20125;DHT22;10223;50.862;4.360;2022-09-09T15:24:50;20.00;99.90
20125;DHT22;10223;50.862;4.360;2022-09-09T15:27:18;20.10;99.90
20125;DHT22;10223;50.862;4.360;2022-09-09T15:29:44;20.20;99.90
20125;DHT22;10223;50.862;4.360;2022-09-09T15:32:12;20.10;99.90
20125;DHT22;10223;50.862;4.360;2022-09-09T15:34:39;20.10;99.90
20125;DHT22;10223;50.862;4.360;2022-09-09T15:37:09;19.90;99.90
20125;DHT22;10223;50.862;4.360;2022-09-09T15:39:37;19.60;99.90
20125;DHT22;10223;50.862;4.360;2022-09-09T15:42:04;19.60;99.90
20125;DHT22;10223;50.862;4.360;2022-09-09T15:44:38;19.60;99.90
20125;DHT22;10223;50.862;4.360;2022-09-09T15:47:05;19.60;99.90
20125;DHT22;10223;50.862;4.360;2022-09-09T15:49:32;19.70;99.90
20125;DHT22;10223;50.862;4.360;2022-09-09T15:52:00;19.80;99.90
20125;DHT22;10223;50.862;4.360;2022-09-09T15:54:32;19.80;99.90
20125;DHT22;10223;50.862;4.360;2022-09-09T15:57:01;19.80;99.90
20125;DHT22;10223;50.862;4.360;2022-09-09T15:59:30;19.70;99.90